<?xml version="1.0" encoding="UTF-8" standalone="no" ?>
<gpx xmlns="http://www.topografix.com/GPX/1/1" xmlns:xsi="http://www.w3.org/2001/XMLSchema-instance" xsi:schemaLocation="http://www.topografix.com/GPX/1/1 http://www.topografix.com/GPX/1/1/gpx.xsd" version="1.1" creator="VisuGPX - https://www.visugpx.com">
  <metadata>
    <name>Sulniac_Autour_10-20km</name>
    <desc><![CDATA[gnerando idor:8142417_8142461]]></desc>
  </metadata>
  <trk>
    <name><![CDATA[Sulniac_Boucle_10.5km-8142461]]></name>
    <extensions>
      <line xmlns="http://www.topografix.com/GPX/gpx_style/0/2">
        <color>00FF00</color>
        <width>4</width>
      </line>
    </extensions>
    <trkseg>
      <trkpt lat="47.6664" lon="-2.56554">
        <ele>123</ele>
        <time>2023-11-14T05:04:41Z</time>
      </trkpt>
      <trkpt lat="47.66631" lon="-2.56395">
        <ele>128</ele>
        <time>2023-11-14T05:07:04Z</time>
      </trkpt>
      <trkpt lat="47.66585" lon="-2.56172">
        <ele>129</ele>
        <time>2023-11-14T05:10:34Z</time>
      </trkpt>
      <trkpt lat="47.66651" lon="-2.56043">
        <ele>125</ele>
        <time>2023-11-14T05:13:00Z</time>
      </trkpt>
      <trkpt lat="47.66741" lon="-2.56022">
        <ele>122</ele>
        <time>2023-11-14T05:15:01Z</time>
      </trkpt>
      <trkpt lat="47.66671" lon="-2.55747">
        <ele>120</ele>
        <time>2023-11-14T05:19:25Z</time>
      </trkpt>
      <trkpt lat="47.66726" lon="-2.5561">
        <ele>124</ele>
        <time>2023-11-14T05:21:49Z</time>
      </trkpt>
      <trkpt lat="47.66666" lon="-2.55511">
        <ele>128</ele>
        <time>2023-11-14T05:23:48Z</time>
      </trkpt>
      <trkpt lat="47.66411" lon="-2.55365">
        <ele>121</ele>
        <time>2023-11-14T05:29:53Z</time>
      </trkpt>
      <trkpt lat="47.66273" lon="-2.55455">
        <ele>119</ele>
        <time>2023-11-14T05:33:14Z</time>
      </trkpt>
      <trkpt lat="47.66163" lon="-2.55421">
        <ele>113</ele>
        <time>2023-11-14T05:35:44Z</time>
      </trkpt>
      <trkpt lat="47.65862" lon="-2.55494">
        <ele>103</ele>
        <time>2023-11-14T05:42:31Z</time>
      </trkpt>
      <trkpt lat="47.65721" lon="-2.55438">
        <ele>106</ele>
        <time>2023-11-14T05:45:46Z</time>
      </trkpt>
      <trkpt lat="47.65712" lon="-2.55284">
        <ele>110</ele>
        <time>2023-11-14T05:48:05Z</time>
      </trkpt>
      <trkpt lat="47.65689" lon="-2.55207">
        <ele>112</ele>
        <time>2023-11-14T05:49:21Z</time>
      </trkpt>
      <trkpt lat="47.65411" lon="-2.55228">
        <ele>115</ele>
        <time>2023-11-14T05:55:32Z</time>
      </trkpt>
      <trkpt lat="47.65403" lon="-2.55365">
        <ele>113</ele>
        <time>2023-11-14T05:57:36Z</time>
      </trkpt>
      <trkpt lat="47.65449" lon="-2.55477">
        <ele>111</ele>
        <time>2023-11-14T05:59:34Z</time>
      </trkpt>
      <trkpt lat="47.65521" lon="-2.55533">
        <ele>109</ele>
        <time>2023-11-14T06:01:22Z</time>
      </trkpt>
      <trkpt lat="47.65504" lon="-2.55644">
        <ele>103</ele>
        <time>2023-11-14T06:03:04Z</time>
      </trkpt>
      <trkpt lat="47.65556" lon="-2.5573">
        <ele>99</ele>
        <time>2023-11-14T06:04:48Z</time>
      </trkpt>
      <trkpt lat="47.65507" lon="-2.55936">
        <ele>98</ele>
        <time>2023-11-14T06:08:05Z</time>
      </trkpt>
      <trkpt lat="47.65443" lon="-2.55945">
        <ele>96</ele>
        <time>2023-11-14T06:09:30Z</time>
      </trkpt>
      <trkpt lat="47.65391" lon="-2.55923">
        <ele>94</ele>
        <time>2023-11-14T06:10:43Z</time>
      </trkpt>
      <trkpt lat="47.6542" lon="-2.56009">
        <ele>100</ele>
        <time>2023-11-14T06:12:09Z</time>
      </trkpt>
      <trkpt lat="47.65232" lon="-2.55842">
        <ele>96</ele>
        <time>2023-11-14T06:17:01Z</time>
      </trkpt>
      <trkpt lat="47.65206" lon="-2.55833">
        <ele>97</ele>
        <time>2023-11-14T06:17:37Z</time>
      </trkpt>
      <trkpt lat="47.65166" lon="-2.56043">
        <ele>109</ele>
        <time>2023-11-14T06:20:53Z</time>
      </trkpt>
      <trkpt lat="47.65186" lon="-2.56194">
        <ele>114</ele>
        <time>2023-11-14T06:23:12Z</time>
      </trkpt>
      <trkpt lat="47.65157" lon="-2.56709">
        <ele>112</ele>
        <time>2023-11-14T06:30:56Z</time>
      </trkpt>
      <trkpt lat="47.65249" lon="-2.56764">
        <ele>113</ele>
        <time>2023-11-14T06:33:08Z</time>
      </trkpt>
      <trkpt lat="47.65284" lon="-2.56932">
        <ele>115</ele>
        <time>2023-11-14T06:35:47Z</time>
      </trkpt>
      <trkpt lat="47.6544" lon="-2.56949">
        <ele>119</ele>
        <time>2023-11-14T06:39:15Z</time>
      </trkpt>
      <trkpt lat="47.65492" lon="-2.57254">
        <ele>118</ele>
        <time>2023-11-14T06:43:58Z</time>
      </trkpt>
      <trkpt lat="47.65301" lon="-2.57502">
        <ele>111</ele>
        <time>2023-11-14T06:49:37Z</time>
      </trkpt>
      <trkpt lat="47.65319" lon="-2.57842">
        <ele>96</ele>
        <time>2023-11-14T06:54:43Z</time>
      </trkpt>
      <trkpt lat="47.65388" lon="-2.58056">
        <ele>99</ele>
        <time>2023-11-14T06:58:17Z</time>
      </trkpt>
      <trkpt lat="47.65507" lon="-2.58086">
        <ele>103</ele>
        <time>2023-11-14T07:00:58Z</time>
      </trkpt>
      <trkpt lat="47.65538" lon="-2.58262">
        <ele>103</ele>
        <time>2023-11-14T07:03:41Z</time>
      </trkpt>
      <trkpt lat="47.65781" lon="-2.58043">
        <ele>115</ele>
        <time>2023-11-14T07:10:00Z</time>
      </trkpt>
      <trkpt lat="47.66047" lon="-2.58151">
        <ele>116</ele>
        <time>2023-11-14T07:16:08Z</time>
      </trkpt>
      <trkpt lat="47.66096" lon="-2.5806">
        <ele>115</ele>
        <time>2023-11-14T07:17:53Z</time>
      </trkpt>
      <trkpt lat="47.66137" lon="-2.58108">
        <ele>115</ele>
        <time>2023-11-14T07:19:03Z</time>
      </trkpt>
      <trkpt lat="47.66371" lon="-2.57743">
        <ele>126</ele>
        <time>2023-11-14T07:26:36Z</time>
      </trkpt>
      <trkpt lat="47.66414" lon="-2.57837">
        <ele>124</ele>
        <time>2023-11-14T07:28:18Z</time>
      </trkpt>
      <trkpt lat="47.6664" lon="-2.57756">
        <ele>120</ele>
        <time>2023-11-14T07:33:28Z</time>
      </trkpt>
      <trkpt lat="47.66799" lon="-2.5773">
        <ele>127</ele>
        <time>2023-11-14T07:37:02Z</time>
      </trkpt>
      <trkpt lat="47.66781" lon="-2.57593">
        <ele>128</ele>
        <time>2023-11-14T07:39:07Z</time>
      </trkpt>
      <trkpt lat="47.66975" lon="-2.57524">
        <ele>130</ele>
        <time>2023-11-14T07:43:33Z</time>
      </trkpt>
      <trkpt lat="47.67122" lon="-2.57569">
        <ele>133</ele>
        <time>2023-11-14T07:46:54Z</time>
      </trkpt>
      <trkpt lat="47.67255" lon="-2.57483">
        <ele>134</ele>
        <time>2023-11-14T07:50:07Z</time>
      </trkpt>
      <trkpt lat="47.67573" lon="-2.57234">
        <ele>127</ele>
        <time>2023-11-14T07:58:07Z</time>
      </trkpt>
      <trkpt lat="47.67515" lon="-2.57093">
        <ele>125</ele>
        <time>2023-11-14T08:00:35Z</time>
      </trkpt>
      <trkpt lat="47.67296" lon="-2.57196">
        <ele>131</ele>
        <time>2023-11-14T08:05:42Z</time>
      </trkpt>
      <trkpt lat="47.67264" lon="-2.57118">
        <ele>130</ele>
        <time>2023-11-14T08:07:04Z</time>
      </trkpt>
      <trkpt lat="47.67021" lon="-2.57247">
        <ele>128</ele>
        <time>2023-11-14T08:12:48Z</time>
      </trkpt>
      <trkpt lat="47.67093" lon="-2.57123">
        <ele>133</ele>
        <time>2023-11-14T08:15:15Z</time>
      </trkpt>
      <trkpt lat="47.67039" lon="-2.56668">
        <ele>133</ele>
        <time>2023-11-14T08:22:11Z</time>
      </trkpt>
      <trkpt lat="47.66781" lon="-2.56621">
        <ele>129</ele>
        <time>2023-11-14T08:27:58Z</time>
      </trkpt>
      <trkpt lat="47.66614" lon="-2.56552">
        <ele>123</ele>
        <time>2023-11-14T08:31:49Z</time>
      </trkpt>
    </trkseg>
  </trk>
</gpx>